Terminal Aerodrome Forecast
Issued by NWS

Home | Current Version | Previous Version | Text Only | Print | Product List | Glossary On
Versions: 1 2 3 4 5 6 7 8 9 10 11 12 13
966
FTUS46 KPDT 212339
TAFYKM
TAF
KYKM 212339Z 2200/2224 31008KT P6SM BKN080 BKN150
     FM220300 31010KT P6SM SCT080 SCT150
     FM221200 34005KT P6SM BKN150 OVC200
     FM221800 30005KT P6SM SCT150 BKN200=

USA.gov is the U.S. government's official web portal to all federal, state and local government web resources and services.